createdAt,value
2022-12-20T00:04:38.755Z,101147.62
2022-12-20T00:09:41.993Z,101136.08
2022-12-20T00:30:06.838Z,101113.92
2022-12-20T00:35:10.999Z,101105.61
2022-12-20T00:40:14.322Z,101107.18
2022-12-20T00:45:17.579Z,101104.75
2022-12-20T00:50:20.816Z,101099.25
2022-12-20T00:55:23.995Z,101097.04
2022-12-20T01:00:27.180Z,101089.67
2022-12-20T01:05:31.555Z,101086.70
2022-12-20T01:10:34.732Z,101078.84
2022-12-20T01:15:38.043Z,101073.81
2022-12-20T01:20:41.280Z,101066.29
2022-12-20T01:25:45.025Z,101068.57
2022-12-20T01:30:48.297Z,101062.05
2022-12-20T01:36:03.514Z,101049.42
2022-12-20T01:41:07.007Z,101041.34
2022-12-20T01:46:10.928Z,101033.20
2022-12-20T01:51:15.764Z,101023.42
2022-12-20T01:56:19.149Z,101011.83
2022-12-20T02:01:25.896Z,101001.69
2022-12-20T02:06:30.727Z,100993.69
2022-12-20T02:12:10.349Z,100984.83
2022-12-20T02:17:38.134Z,100978.48
2022-12-20T02:23:13.272Z,100979.83
2022-12-20T02:28:25.759Z,100968.70
2022-12-20T02:33:28.932Z,100966.44
2022-12-20T02:38:34.794Z,100968.34
2022-12-20T02:44:01.320Z,100966.45
2022-12-20T02:49:13.314Z,100966.27
2022-12-20T02:54:18.085Z,100967.23
2022-12-20T02:59:55.708Z,100961.78
2022-12-20T03:04:59.561Z,100951.35
2022-12-20T03:10:03.427Z,100941.46
2022-12-20T03:15:07.183Z,100936.91
2022-12-20T03:20:12.229Z,100931.41
2022-12-20T03:25:15.861Z,100942.50
2022-12-20T03:30:19.389Z,100954.70
2022-12-20T03:35:22.783Z,100939.45
2022-12-20T03:40:26.127Z,100932.55
2022-12-20T03:45:29.483Z,100941.76
2022-12-20T03:50:32.994Z,100937.63
2022-12-20T03:55:37.013Z,100933.59
2022-12-20T04:00:40.315Z,100935.82
2022-12-20T04:06:23.520Z,100937.13
2022-12-20T04:11:27.181Z,100937.17
2022-12-20T04:16:49.660Z,100931.60
2022-12-20T04:22:02.713Z,100913.92
2022-12-20T04:27:15.409Z,100906.57
2022-12-20T04:32:19.122Z,100908.36
2022-12-20T04:37:22.597Z,100910.14
2022-12-20T04:42:28.782Z,100916.06
2022-12-20T04:47:32.335Z,100921.05
2022-12-20T04:52:54.557Z,100913.21
2022-12-20T04:58:03.619Z,100916.73
2022-12-20T05:03:11.135Z,100917.73
2022-12-20T05:08:14.805Z,100918.00
2022-12-20T05:13:18.198Z,100909.08
2022-12-20T05:18:22.576Z,100893.08
2022-12-20T05:23:54.152Z,100884.84
2022-12-20T05:28:59.105Z,100884.21
2022-12-20T05:34:02.818Z,100882.72
2022-12-20T05:39:08.457Z,100877.02
2022-12-20T05:44:15.421Z,100874.27
2022-12-20T05:49:20.660Z,100886.65
2022-12-20T05:54:25.744Z,100888.77
2022-12-20T05:59:42.022Z,100891.05
2022-12-20T06:04:51.193Z,100884.70
2022-12-20T06:09:59.939Z,100882.77
2022-12-20T06:15:15.945Z,100875.88
2022-12-20T06:20:19.328Z,100871.29
2022-12-20T06:25:24.812Z,100876.06
2022-12-20T06:30:33.616Z,100877.84
2022-12-20T06:35:55.015Z,100879.38
2022-12-20T06:40:59.448Z,100874.71
2022-12-20T06:46:02.772Z,100867.13
2022-12-20T06:51:07.019Z,100867.00
2022-12-20T06:56:10.215Z,100876.39
2022-12-20T07:01:13.438Z,100882.38
2022-12-20T07:06:16.740Z,100893.11
2022-12-20T07:11:19.848Z,100896.75
2022-12-20T07:16:23.072Z,100906.38
2022-12-20T07:21:26.345Z,100899.88
2022-12-20T07:26:29.786Z,100894.82
2022-12-20T07:31:33.017Z,100893.27
2022-12-20T07:36:36.276Z,100896.48
2022-12-20T07:41:40.353Z,100896.42
2022-12-20T07:46:48.458Z,100889.90
2022-12-20T07:51:57.001Z,100895.09
2022-12-20T07:57:05.136Z,100892.77
2022-12-20T08:02:15.918Z,100890.27
2022-12-20T08:07:19.287Z,100888.44
2022-12-20T08:12:23.117Z,100898.08
2022-12-20T08:17:26.350Z,100902.36
2022-12-20T08:22:29.528Z,100905.95
2022-12-20T08:27:32.731Z,100897.05
2022-12-20T08:32:36.590Z,100886.67
2022-12-20T08:37:40.849Z,100879.71
2022-12-20T08:42:43.977Z,100878.10
2022-12-20T08:47:48.068Z,100881.27
2022-12-20T08:52:51.239Z,100877.73
2022-12-20T08:57:54.319Z,100876.43
2022-12-20T09:02:57.641Z,100872.38
2022-12-20T09:08:01.194Z,100879.52
2022-12-20T09:13:04.299Z,100875.47
2022-12-20T09:18:07.494Z,100874.05
2022-12-20T09:23:10.990Z,100873.44
2022-12-20T09:28:14.121Z,100869.09
2022-12-20T09:33:17.302Z,100870.38
2022-12-20T09:38:20.701Z,100861.21
2022-12-20T09:43:24.738Z,100857.70
2022-12-20T09:48:34.797Z,100853.38
2022-12-20T09:53:48.824Z,100859.16
2022-12-20T09:59:30.391Z,100863.33
2022-12-20T10:04:36.373Z,100871.13
2022-12-20T10:09:55.048Z,100863.23
2022-12-20T10:15:09.795Z,100868.27
2022-12-20T10:20:24.241Z,100865.16
2022-12-20T10:25:35.044Z,100862.84
2022-12-20T10:30:38.177Z,100864.95
2022-12-20T10:35:43.464Z,100863.90
2022-12-20T10:41:21.209Z,100860.46
2022-12-20T10:46:19.821Z,100855.98
2022-12-20T10:51:23.217Z,100846.00
2022-12-20T10:56:56.870Z,100838.75
2022-12-20T11:02:00.371Z,100826.15
2022-12-20T11:07:25.031Z,100819.92
2022-12-20T11:12:28.667Z,100808.73
2022-12-20T11:17:38.870Z,100798.37
2022-12-20T11:22:54.343Z,100779.21
2022-12-20T11:28:33.025Z,100769.84
2022-12-20T11:33:59.538Z,100777.52
2022-12-20T11:39:05.667Z,100782.98
2022-12-20T11:44:26.207Z,100786.13
2022-12-20T11:49:36.113Z,100774.63
2022-12-20T11:54:48.259Z,100767.20
2022-12-20T11:59:56.084Z,100762.90
2022-12-20T12:05:04.460Z,100760.70
2022-12-20T12:10:30.299Z,100762.34
2022-12-20T12:15:37.600Z,100767.61
2022-12-20T12:21:09.980Z,100763.05
2022-12-20T12:26:29.451Z,100758.98
2022-12-20T12:31:40.745Z,100753.99
2022-12-20T12:37:12.594Z,100756.23
2022-12-20T12:42:28.046Z,100762.56
2022-12-20T12:48:00.349Z,100763.75
2022-12-20T12:53:19.799Z,100756.64
2022-12-20T12:58:22.958Z,100755.22
2022-12-20T13:03:54.642Z,100767.06
2022-12-20T13:09:00.672Z,100758.91
2022-12-20T13:14:15.748Z,100759.91
2022-12-20T13:19:36.795Z,100758.52
2022-12-20T13:24:59.940Z,100763.52
2022-12-20T13:30:15.928Z,100770.05
2022-12-20T13:35:25.628Z,100769.91
2022-12-20T13:40:50.412Z,100768.01
2022-12-20T13:46:12.093Z,100778.13
2022-12-20T13:51:21.303Z,100787.77
2022-12-20T13:56:27.684Z,100784.04
2022-12-20T14:01:34.907Z,100778.92
2022-12-20T14:06:38.334Z,100768.43
2022-12-20T14:11:47.954Z,100754.60
2022-12-20T14:16:51.195Z,100748.84
2022-12-20T14:21:54.867Z,100751.52
2022-12-20T14:26:58.132Z,100748.11
2022-12-20T14:32:01.221Z,100751.14
2022-12-20T14:37:28.800Z,100748.74
2022-12-20T14:42:37.417Z,100751.73
2022-12-20T14:48:07.669Z,100756.50
2022-12-20T14:53:34.343Z,100758.46
2022-12-20T14:58:40.888Z,100750.11
2022-12-20T15:03:55.893Z,100745.45
2022-12-20T15:08:59.201Z,100734.63
2022-12-20T15:14:04.538Z,100722.10
2022-12-20T15:19:10.098Z,100717.84
2022-12-20T15:24:21.950Z,100719.06
2022-12-20T15:29:27.912Z,100718.18
2022-12-20T15:34:35.343Z,100709.14
2022-12-20T15:39:38.702Z,100707.33
2022-12-20T15:44:42.655Z,100708.77
2022-12-20T15:49:50.033Z,100706.66
2022-12-20T15:54:53.947Z,100695.86
2022-12-20T16:00:02.416Z,100695.43
2022-12-20T16:05:14.847Z,100695.30
2022-12-20T16:10:18.296Z,100698.56
2022-12-20T16:15:23.221Z,100696.48
2022-12-20T16:20:27.762Z,100692.29
2022-12-20T16:25:33.754Z,100696.23
2022-12-20T16:30:37.026Z,100700.20
2022-12-20T16:35:40.202Z,100700.71
2022-12-20T16:40:43.358Z,100698.31
2022-12-20T16:45:46.645Z,100698.28
2022-12-20T16:50:49.798Z,100693.43
2022-12-20T16:55:52.932Z,100691.52
2022-12-20T17:00:56.111Z,100693.77
2022-12-20T17:05:59.264Z,100694.46
2022-12-20T17:11:02.461Z,100687.59
2022-12-20T17:16:06.167Z,100690.90
2022-12-20T17:21:31.391Z,100698.46
2022-12-20T17:26:35.165Z,100685.30
2022-12-20T17:31:40.984Z,100649.27
2022-12-20T17:36:44.734Z,100647.73
2022-12-20T17:41:49.675Z,100657.40
2022-12-20T17:46:53.696Z,100664.77
2022-12-20T17:51:56.858Z,100662.23
2022-12-20T17:57:00.143Z,100657.39
2022-12-20T18:02:03.356Z,100663.91
2022-12-20T18:07:06.737Z,100662.31
2022-12-20T18:12:10.784Z,100655.96
2022-12-20T18:17:14.026Z,100649.17
2022-12-20T18:22:17.219Z,100638.71
2022-12-20T18:27:23.855Z,100634.80
2022-12-20T18:32:31.943Z,100633.39
2022-12-20T18:37:35.123Z,100638.87
2022-12-20T18:42:38.207Z,100635.73
2022-12-20T18:47:41.329Z,100639.88
2022-12-20T18:52:47.126Z,100636.93
2022-12-20T18:57:50.533Z,100630.45
2022-12-20T19:02:56.802Z,100634.59
2022-12-20T19:08:01.045Z,100635.11
2022-12-20T19:13:06.133Z,100636.30
2022-12-20T19:18:09.634Z,100642.14
2022-12-20T19:23:12.890Z,100639.87
2022-12-20T19:28:16.079Z,100631.13
2022-12-20T19:33:19.783Z,100624.44
2022-12-20T19:38:23.009Z,100615.48
2022-12-20T19:43:26.191Z,100616.66
2022-12-20T19:48:29.391Z,100623.35
2022-12-20T19:53:33.319Z,100631.39
2022-12-20T19:58:37.409Z,100620.66
2022-12-20T20:03:41.182Z,100615.52
2022-12-20T20:08:45.786Z,100613.36
2022-12-20T20:13:49.114Z,100608.55
2022-12-20T20:18:52.748Z,100598.70
2022-12-20T20:23:56.280Z,100589.36
2022-12-20T20:29:01.945Z,100578.30
2022-12-20T20:34:05.194Z,100566.77
2022-12-20T20:39:08.383Z,100564.70
2022-12-20T20:44:12.448Z,100567.69
2022-12-20T20:49:15.674Z,100563.08
2022-12-20T20:54:18.813Z,100571.34
2022-12-20T20:59:22.934Z,100581.64
2022-12-20T21:04:26.090Z,100583.83
2022-12-20T21:09:29.271Z,100578.50
2022-12-20T21:15:10.677Z,100566.16
2022-12-20T21:19:55.449Z,100560.86
2022-12-20T21:24:59.256Z,100555.65
2022-12-20T21:30:02.389Z,100559.76
2022-12-20T21:35:06.335Z,100551.43
2022-12-20T21:40:10.326Z,100552.48
2022-12-20T21:45:13.428Z,100557.98
2022-12-20T21:50:16.689Z,100557.86
2022-12-20T21:55:20.657Z,100556.05
2022-12-20T22:00:23.935Z,100549.70
2022-12-20T22:05:27.336Z,100543.14
2022-12-20T22:10:30.633Z,100546.34
2022-12-20T22:15:33.934Z,100545.95
2022-12-20T22:20:37.234Z,100533.38
2022-12-20T22:25:40.923Z,100526.35
2022-12-20T22:30:44.088Z,100511.60
2022-12-20T22:35:48.626Z,100507.14
2022-12-20T22:40:56.163Z,100507.47
2022-12-20T22:51:22.922Z,100506.04
2022-12-20T22:56:26.927Z,100503.09
2022-12-20T23:01:30.273Z,100498.30
2022-12-20T23:06:33.453Z,100480.40
2022-12-20T23:11:55.118Z,100472.65
2022-12-20T23:16:58.722Z,100475.54
2022-12-20T23:22:20.662Z,100458.95
2022-12-20T23:27:25.038Z,100454.30
2022-12-20T23:32:29.108Z,100456.54
2022-12-20T23:37:32.285Z,100458.83
2022-12-20T23:42:35.455Z,100446.44
2022-12-20T23:47:38.933Z,100434.00
2022-12-20T23:52:41.976Z,100426.72
2022-12-20T23:57:45.084Z,100416.51
